Sea Lion — WDF6072 — position and weather

sailwx.info

Track history (hours):
 
Tides and Currents Weather Stations Pressure Air Temp Water Temp Dewpoint Dewpoint Depression Visibility Wind Speed Wind Dir Waves Ship Positions

Sea Lion

Owner: Sea Lion Holdings, LLC, Sausalito, CA. More information available from US FCC via Universal Licensing System and Coast Guard Vessel Documentation Center.

Last reported at 2017-Feb-20 13:32 UTC. Time now 2017-Feb-20 14:00 UTC.
Position N 47°40' W 122°23'.

; draft 3 m.

Type: Pleasure craft. MMSI: 367470340.

Date/timePositionNaut miles runAvg speedWind from/ knotsBaromVisibWave heightAir tempDewpointWater temp
2017-Feb-20 13:32N 47°40' W 122°23'0 0.0
2017-Feb-20 12:32N 47°40' W 122°23'0 0.0
2017-Feb-20 11:32N 47°40' W 122°23'0 0.0
2017-Feb-20 10:32N 47°40' W 122°23'0 0.0
2017-Feb-20 09:32N 47°40' W 122°23'0 0.0
2017-Feb-20 08:33N 47°40' W 122°23'0 0.0
2017-Feb-20 07:33N 47°40' W 122°23'0 0.0
2017-Feb-20 06:33N 47°40' W 122°23'0 0.0
2017-Feb-20 05:33N 47°40' W 122°23'0 0.0
2017-Feb-20 04:32N 47°40' W 122°23'0 0.0
2017-Feb-20 03:32N 47°40' W 122°23'0 0.0
2017-Feb-20 02:33N 47°40' W 122°23'0 0.0
2017-Feb-20 01:33N 47°40' W 122°23'0 0.0
2017-Feb-20 00:32N 47°40' W 122°23'0 0.0
2017-Feb-19 23:33N 47°40' W 122°23'0 0.0
2017-Feb-19 22:33N 47°40' W 122°23'0 0.0
2017-Feb-19 21:34N 47°40' W 122°23'0 0.0
2017-Feb-19 20:33N 47°40' W 122°23'0 0.0
2017-Feb-19 19:33N 47°40' W 122°23'0 0.0
2017-Feb-19 18:33N 47°40' W 122°23'0 0.0
2017-Feb-19 17:33N 47°40' W 122°23'0 0.0
2017-Feb-19 16:33N 47°40' W 122°23'0 0.0
2017-Feb-19 15:32N 47°40' W 122°23'0 0.0
2017-Feb-19 14:30N 47°40' W 122°23'0 0.0
2017-Feb-19 13:32N 47°40' W 122°23'0 0.0
2017-Feb-19 12:32N 47°40' W 122°23'0 0.0
2017-Feb-19 11:33N 47°40' W 122°23'0 0.0
2017-Feb-19 10:32N 47°40' W 122°23'0 0.0
2017-Feb-19 09:32N 47°40' W 122°23'0 0.0
2017-Feb-19 08:32N 47°40' W 122°23'0 0.0
2017-Feb-19 07:33N 47°40' W 122°23'0 0.0
2017-Feb-19 06:32N 47°40' W 122°23'0 0.0
2017-Feb-19 05:33N 47°40' W 122°23'0 0.0
2017-Feb-19 04:33N 47°40' W 122°23'0 0.0
2017-Feb-19 03:33N 47°40' W 122°23'0 0.0
2017-Feb-19 02:34N 47°40' W 122°23'1 0.7
2017-Feb-19 01:33N 47°40' W 122°24'7 7.3
2017-Feb-19 00:33N 47°47' W 122°28'9 8.3
2017-Feb-18 23:26N 47°56' W 122°32'0 0.1
2017-Feb-18 20:03N 47°56' W 122°33'5 9.9
2017-Feb-18 19:34N 47°52' W 122°29'8 8.4
2017-Feb-18 18:33N 47°44' W 122°25'3 2.9
2017-Feb-18 17:34N 47°41' W 122°24'1 1.4
2017-Feb-18 16:31N 47°40' W 122°23'0 0.0
2017-Feb-18 15:31N 47°40' W 122°23'0 0.0
2017-Feb-18 14:31N 47°40' W 122°23'0 0.0
2017-Feb-18 13:31N 47°40' W 122°23'0 0.0
2017-Feb-18 12:28N 47°40' W 122°23'0 0.0
2017-Feb-18 11:31N 47°40' W 122°23'0 0.0
2017-Feb-18 10:31N 47°40' W 122°23'0 0.0
2017-Feb-18 09:28N 47°40' W 122°23'0 0.0
2017-Feb-18 08:31N 47°40' W 122°23'0 0.0
2017-Feb-18 07:31N 47°40' W 122°23'0 0.0
2017-Feb-18 06:31N 47°40' W 122°23'0 0.0
2017-Feb-18 05:31N 47°40' W 122°23'0 0.0
2017-Feb-18 04:31N 47°40' W 122°23'0 0.0
2017-Feb-18 03:31N 47°40' W 122°23'0 0.0
2017-Feb-18 02:31N 47°40' W 122°23'0 0.0
2017-Feb-18 01:31N 47°40' W 122°23'0 0.0
2017-Feb-18 00:31N 47°40' W 122°23'0 0.0
2017-Feb-17 23:31N 47°40' W 122°23'0 0.0
2017-Feb-17 22:31N 47°40' W 122°23'0 0.0
2017-Feb-17 21:31N 47°40' W 122°23'0 0.0
2017-Feb-17 20:31N 47°40' W 122°23'0 0.0
2017-Feb-17 19:25N 47°40' W 122°23'0 0.0
2017-Feb-17 18:31N 47°40' W 122°23'0 0.0
2017-Feb-17 17:31N 47°40' W 122°23'0 0.0
2017-Feb-17 16:31N 47°40' W 122°23'0 0.0
2017-Feb-17 15:31N 47°40' W 122°23'0 0.0
2017-Feb-17 14:28N 47°40' W 122°23'0 0.0
2017-Feb-17 13:31N 47°40' W 122°23'0 0.0
2017-Feb-17 12:31N 47°40' W 122°23'0 0.0
2017-Feb-17 11:31N 47°40' W 122°23'0 0.0
2017-Feb-17 10:28N 47°40' W 122°23'0 0.0
2017-Feb-17 09:31N 47°40' W 122°23'0 0.0
2017-Feb-17 08:28N 47°40' W 122°23'0 0.0
2017-Feb-17 07:31N 47°40' W 122°23'0 0.0
2017-Feb-17 06:31N 47°40' W 122°23'0 0.0
2017-Feb-17 05:32N 47°40' W 122°23'0 0.0
2017-Feb-17 04:28N 47°40' W 122°23'0 0.0
2017-Feb-17 03:31N 47°40' W 122°23'0 0.0
2017-Feb-17 02:31N 47°40' W 122°23'0 0.0
2017-Feb-17 01:31N 47°40' W 122°23'0 0.0
2017-Feb-17 00:31N 47°40' W 122°23'0 0.0
2017-Feb-16 23:31N 47°40' W 122°23'0 0.0
2017-Feb-16 22:32N 47°40' W 122°23'0 0.0
2017-Feb-16 21:32N 47°40' W 122°23'0 0.0
2017-Feb-16 20:32N 47°40' W 122°23'0 0.0
2017-Feb-16 19:31N 47°40' W 122°23'0 0.0
2017-Feb-16 18:31N 47°40' W 122°23'0 0.0
2017-Feb-16 17:28N 47°40' W 122°23'0 0.0
2017-Feb-16 16:31N 47°40' W 122°23'0 0.0
2017-Feb-16 15:31N 47°40' W 122°23'0 0.0
2017-Feb-16 14:31N 47°40' W 122°23'0 0.0
2017-Feb-16 13:32N 47°40' W 122°23'0 0.0
2017-Feb-16 12:31N 47°40' W 122°23'0 0.0
2017-Feb-16 11:31N 47°40' W 122°23'0 0.0
2017-Feb-16 10:31N 47°40' W 122°23'0 0.0
2017-Feb-16 09:32N 47°40' W 122°23'0 0.0
2017-Feb-16 08:31N 47°40' W 122°23'0 0.0
2017-Feb-16 07:31N 47°40' W 122°23'0 0.0
2017-Feb-16 06:31N 47°40' W 122°23'0 0.0
2017-Feb-16 05:31N 47°40' W 122°23'0 0.0
2017-Feb-16 04:31N 47°40' W 122°23'0 0.0
2017-Feb-16 03:32N 47°40' W 122°23'0 0.0
2017-Feb-16 02:32N 47°40' W 122°23'0 0.0
2017-Feb-16 01:32N 47°40' W 122°23'0 0.0
2017-Feb-16 00:31N 47°40' W 122°23'0 0.0
2017-Feb-15 23:32N 47°40' W 122°23'0 0.0
2017-Feb-15 22:31N 47°40' W 122°23'0 0.0
2017-Feb-15 21:32N 47°40' W 122°23'0 0.0
2017-Feb-15 20:28N 47°40' W 122°23'0 0.0
2017-Feb-15 19:32N 47°40' W 122°23'0 0.0
2017-Feb-15 18:28N 47°40' W 122°23'0 0.0
2017-Feb-15 17:31N 47°40' W 122°23'0 0.0
2017-Feb-15 16:31N 47°40' W 122°23'0 0.0
2017-Feb-15 15:31N 47°40' W 122°23'0 0.0
2017-Feb-15 14:31N 47°40' W 122°23'0 0.0
2017-Feb-15 13:31N 47°40' W 122°23'0 0.0
2017-Feb-15 12:31N 47°40' W 122°23'0 0.0
2017-Feb-15 11:31N 47°40' W 122°23'0 0.0
2017-Feb-15 10:31N 47°40' W 122°23'0 0.0
2017-Feb-15 09:30N 47°40' W 122°23'0 0.0
2017-Feb-15 08:31N 47°40' W 122°23'0 0.0
2017-Feb-15 07:29N 47°40' W 122°23'0 0.0
2017-Feb-15 06:31N 47°40' W 122°23'0 0.0
2017-Feb-15 05:31N 47°40' W 122°23'0 0.0
2017-Feb-15 04:31N 47°40' W 122°23'0 0.0
2017-Feb-15 03:31N 47°40' W 122°23'0 0.0
2017-Feb-15 02:32N 47°40' W 122°23'0 0.0
2017-Feb-15 01:31N 47°40' W 122°23'0 0.0
2017-Feb-15 00:31N 47°40' W 122°23'0 0.0
2017-Feb-14 23:31N 47°40' W 122°23'0 0.0
2017-Feb-14 22:28N 47°40' W 122°23'0 0.0
2017-Feb-14 21:31N 47°40' W 122°23'0 0.0
2017-Feb-14 20:31N 47°40' W 122°23'0 0.0
2017-Feb-14 19:31N 47°40' W 122°23'0 0.0
2017-Feb-14 18:31N 47°40' W 122°23'0 0.0
2017-Feb-14 17:32N 47°40' W 122°23'0 0.0
2017-Feb-14 16:31N 47°40' W 122°23'0 0.0
2017-Feb-14 15:32N 47°40' W 122°23'0 0.0
2017-Feb-14 14:31N 47°40' W 122°23'0 0.0
2017-Feb-14 13:32N 47°40' W 122°23'0 0.0
2017-Feb-14 12:32N 47°40' W 122°23'0 0.0
2017-Feb-14 11:29N 47°40' W 122°23'0 0.0
2017-Feb-14 10:31N 47°40' W 122°23'0 0.0
2017-Feb-14 09:32N 47°40' W 122°23'0 0.0
2017-Feb-14 08:32N 47°40' W 122°23'0 0.0
2017-Feb-14 07:32N 47°40' W 122°23'0 0.0
2017-Feb-14 06:31N 47°40' W 122°23'0 0.0
2017-Feb-14 05:32N 47°40' W 122°23'0 0.0
2017-Feb-14 04:32N 47°40' W 122°23'0 0.0
2017-Feb-14 03:32N 47°40' W 122°23'0 0.0
2017-Feb-14 02:31N 47°40' W 122°23'0 0.0
2017-Feb-14 01:31N 47°40' W 122°23'0 0.0
2017-Feb-14 00:31N 47°40' W 122°23'0 0.0
2017-Feb-13 23:32N 47°40' W 122°23'0 0.0
2017-Feb-13 22:32N 47°40' W 122°23'0 0.0
2017-Feb-13 21:31N 47°40' W 122°23'0 0.0
2017-Feb-13 20:32N 47°40' W 122°23'0 0.0
2017-Feb-13 19:25N 47°40' W 122°23'0 0.0
2017-Feb-13 18:31N 47°40' W 122°23'0 0.0
2017-Feb-13 17:31N 47°40' W 122°23'0 0.0
2017-Feb-13 16:28N 47°40' W 122°23'0 0.0
2017-Feb-13 15:31N 47°40' W 122°23'0 0.0
2017-Feb-13 14:31N 47°40' W 122°23'0 0.0
2017-Feb-13 13:32N 47°40' W 122°23'0 0.0
2017-Feb-13 12:31N 47°40' W 122°23'0 0.0
2017-Feb-13 11:32N 47°40' W 122°23'0 0.0
2017-Feb-13 10:31N 47°40' W 122°23'0 0.0
2017-Feb-13 09:32N 47°40' W 122°23'0 0.0
2017-Feb-13 08:32N 47°40' W 122°23'0 0.0
2017-Feb-13 07:32N 47°40' W 122°23'0 0.0
2017-Feb-13 06:28N 47°40' W 122°23'0 0.0
2017-Feb-13 05:31N 47°40' W 122°23'0 0.0
2017-Feb-13 04:32N 47°40' W 122°23'0 0.0
2017-Feb-13 03:32N 47°40' W 122°23'0 0.0
2017-Feb-13 02:31N 47°40' W 122°23'0 0.0
2017-Feb-13 01:31N 47°40' W 122°23'0 0.0
2017-Feb-13 00:32N 47°40' W 122°23'0 0.0
2017-Feb-12 23:31N 47°40' W 122°23'0 0.0
2017-Feb-12 22:29N 47°40' W 122°23'0 0.0
2017-Feb-12 21:31N 47°40' W 122°23'0 0.0
2017-Feb-12 20:31N 47°40' W 122°23'0 0.0
2017-Feb-12 19:31N 47°40' W 122°23'0 0.0
2017-Feb-12 18:28N 47°40' W 122°23'0 0.0
2017-Feb-12 17:31N 47°40' W 122°23'0 0.0
2017-Feb-12 16:31N 47°40' W 122°23'0 0.0
2017-Feb-12 15:31N 47°40' W 122°23'0 0.0
2017-Feb-12 14:31N 47°40' W 122°23'0 0.0
2017-Feb-12 13:31N 47°40' W 122°23'0 0.0
2017-Feb-12 12:28N 47°40' W 122°23'0 0.0
2017-Feb-12 11:31N 47°40' W 122°23'0 0.0
2017-Feb-12 10:28N 47°40' W 122°23'0 0.0
2017-Feb-12 09:31N 47°40' W 122°23'0 0.0
2017-Feb-12 08:31N 47°40' W 122°23'0 0.0
2017-Feb-12 07:32N 47°40' W 122°23'0 0.0
2017-Feb-12 06:32N 47°40' W 122°23'0 0.0
2017-Feb-12 05:28N 47°40' W 122°23'0 0.0
2017-Feb-12 04:28N 47°40' W 122°23'0 0.0
2017-Feb-12 03:31N 47°40' W 122°23'0 0.0
2017-Feb-12 02:31N 47°40' W 122°23'0 0.0
2017-Feb-12 01:29N 47°40' W 122°23'0 0.0
2017-Feb-12 00:31N 47°40' W 122°23'0 0.0
2017-Feb-11 23:31N 47°40' W 122°23'0 0.0
2017-Feb-11 22:32N 47°40' W 122°23'0 0.0
2017-Feb-11 21:31N 47°40' W 122°23'0 0.0
2017-Feb-11 20:31N 47°40' W 122°23'0 0.0
2017-Feb-11 19:31N 47°40' W 122°23'0 0.0
2017-Feb-11 18:31N 47°40' W 122°23'0 0.0
2017-Feb-11 17:32N 47°40' W 122°23'0 0.0
2017-Feb-11 16:31N 47°40' W 122°23'0 0.0
2017-Feb-11 15:32N 47°40' W 122°23'0 0.0
2017-Feb-11 14:31N 47°40' W 122°23'0 0.0
2017-Feb-11 13:31N 47°40' W 122°23'0 0.0
2017-Feb-11 12:32N 47°40' W 122°23'0 0.0
2017-Feb-11 11:28N 47°40' W 122°23'0 0.0
2017-Feb-11 10:31N 47°40' W 122°23'0 0.0
2017-Feb-11 09:31N 47°40' W 122°23'0 0.0
2017-Feb-11 08:31N 47°40' W 122°23'0 0.0
2017-Feb-11 07:31N 47°40' W 122°23'0 0.0
2017-Feb-11 06:31N 47°40' W 122°23'0 0.0
2017-Feb-11 05:31N 47°40' W 122°23'0 0.0
2017-Feb-11 04:32N 47°40' W 122°23'0 0.0
2017-Feb-11 03:31N 47°40' W 122°23'0 0.0
2017-Feb-11 02:32N 47°40' W 122°23'0 0.0
2017-Feb-11 01:32N 47°40' W 122°23'0 0.0
2017-Feb-11 00:31N 47°40' W 122°23'0 0.0
2017-Feb-10 23:31N 47°40' W 122°23'0 0.0
2017-Feb-10 22:31N 47°40' W 122°23'0 0.0
2017-Feb-10 21:28N 47°40' W 122°23'0 0.0
2017-Feb-10 20:31N 47°40' W 122°23'0 0.0
2017-Feb-10 19:28N 47°40' W 122°23'0 0.0
2017-Feb-10 18:31N 47°40' W 122°23'0 0.0
2017-Feb-10 17:31N 47°40' W 122°23'0 0.0
2017-Feb-10 16:31N 47°40' W 122°23'0 0.0
2017-Feb-10 15:31N 47°40' W 122°23'0 0.0
2017-Feb-10 14:31N 47°40' W 122°23'  
Track history (hours):
 
Tides and Currents Weather Stations Pressure Air Temp Water Temp Dewpoint Dewpoint Depression Visibility Wind Speed Wind Dir Waves Ship Positions

Sea Lion

Owner: Sea Lion Holdings, LLC, Sausalito, CA. More information available from US FCC via Universal Licensing System and Coast Guard Vessel Documentation Center.

Last reported at 2017-Feb-20 13:32 UTC. Time now 2017-Feb-20 14:00 UTC.
Position N 47°40' W 122°23'.

; draft 3 m.

Type: Pleasure craft. MMSI: 367470340.

Date/timePositionNaut miles runAvg speedWind from/ knotsBaromVisibWave heightAir tempDewpointWater temp
2017-Feb-20 13:32N 47°40' W 122°23'0 0.0
2017-Feb-20 12:32N 47°40' W 122°23'0 0.0
2017-Feb-20 11:32N 47°40' W 122°23'0 0.0
2017-Feb-20 10:32N 47°40' W 122°23'0 0.0
2017-Feb-20 09:32N 47°40' W 122°23'0 0.0
2017-Feb-20 08:33N 47°40' W 122°23'0 0.0
2017-Feb-20 07:33N 47°40' W 122°23'0 0.0
2017-Feb-20 06:33N 47°40' W 122°23'0 0.0
2017-Feb-20 05:33N 47°40' W 122°23'0 0.0
2017-Feb-20 04:32N 47°40' W 122°23'0 0.0
2017-Feb-20 03:32N 47°40' W 122°23'0 0.0
2017-Feb-20 02:33N 47°40' W 122°23'0 0.0
2017-Feb-20 01:33N 47°40' W 122°23'0 0.0
2017-Feb-20 00:32N 47°40' W 122°23'0 0.0
2017-Feb-19 23:33N 47°40' W 122°23'0 0.0
2017-Feb-19 22:33N 47°40' W 122°23'0 0.0
2017-Feb-19 21:34N 47°40' W 122°23'0 0.0
2017-Feb-19 20:33N 47°40' W 122°23'0 0.0
2017-Feb-19 19:33N 47°40' W 122°23'0 0.0
2017-Feb-19 18:33N 47°40' W 122°23'0 0.0
2017-Feb-19 17:33N 47°40' W 122°23'0 0.0
2017-Feb-19 16:33N 47°40' W 122°23'0 0.0
2017-Feb-19 15:32N 47°40' W 122°23'0 0.0
2017-Feb-19 14:30N 47°40' W 122°23'0 0.0
2017-Feb-19 13:32N 47°40' W 122°23'0 0.0
2017-Feb-19 12:32N 47°40' W 122°23'0 0.0
2017-Feb-19 11:33N 47°40' W 122°23'0 0.0
2017-Feb-19 10:32N 47°40' W 122°23'0 0.0
2017-Feb-19 09:32N 47°40' W 122°23'0 0.0
2017-Feb-19 08:32N 47°40' W 122°23'0 0.0
2017-Feb-19 07:33N 47°40' W 122°23'0 0.0
2017-Feb-19 06:32N 47°40' W 122°23'0 0.0
2017-Feb-19 05:33N 47°40' W 122°23'0 0.0
2017-Feb-19 04:33N 47°40' W 122°23'0 0.0
2017-Feb-19 03:33N 47°40' W 122°23'0 0.0
2017-Feb-19 02:34N 47°40' W 122°23'1 0.7
2017-Feb-19 01:33N 47°40' W 122°24'7 7.3
2017-Feb-19 00:33N 47°47' W 122°28'9 8.3
2017-Feb-18 23:26N 47°56' W 122°32'0 0.1
2017-Feb-18 20:03N 47°56' W 122°33'5 9.9
2017-Feb-18 19:34N 47°52' W 122°29'8 8.4
2017-Feb-18 18:33N 47°44' W 122°25'3 2.9
2017-Feb-18 17:34N 47°41' W 122°24'1 1.4
2017-Feb-18 16:31N 47°40' W 122°23'0 0.0
2017-Feb-18 15:31N 47°40' W 122°23'0 0.0
2017-Feb-18 14:31N 47°40' W 122°23'0 0.0
2017-Feb-18 13:31N 47°40' W 122°23'0 0.0
2017-Feb-18 12:28N 47°40' W 122°23'0 0.0
2017-Feb-18 11:31N 47°40' W 122°23'0 0.0
2017-Feb-18 10:31N 47°40' W 122°23'0 0.0
2017-Feb-18 09:28N 47°40' W 122°23'0 0.0
2017-Feb-18 08:31N 47°40' W 122°23'0 0.0
2017-Feb-18 07:31N 47°40' W 122°23'0 0.0
2017-Feb-18 06:31N 47°40' W 122°23'0 0.0
2017-Feb-18 05:31N 47°40' W 122°23'0 0.0
2017-Feb-18 04:31N 47°40' W 122°23'0 0.0
2017-Feb-18 03:31N 47°40' W 122°23'0 0.0
2017-Feb-18 02:31N 47°40' W 122°23'0 0.0
2017-Feb-18 01:31N 47°40' W 122°23'0 0.0
2017-Feb-18 00:31N 47°40' W 122°23'0 0.0
2017-Feb-17 23:31N 47°40' W 122°23'0 0.0
2017-Feb-17 22:31N 47°40' W 122°23'0 0.0
2017-Feb-17 21:31N 47°40' W 122°23'0 0.0
2017-Feb-17 20:31N 47°40' W 122°23'0 0.0
2017-Feb-17 19:25N 47°40' W 122°23'0 0.0
2017-Feb-17 18:31N 47°40' W 122°23'0 0.0
2017-Feb-17 17:31N 47°40' W 122°23'0 0.0
2017-Feb-17 16:31N 47°40' W 122°23'0 0.0
2017-Feb-17 15:31N 47°40' W 122°23'0 0.0
2017-Feb-17 14:28N 47°40' W 122°23'0 0.0
2017-Feb-17 13:31N 47°40' W 122°23'0 0.0
2017-Feb-17 12:31N 47°40' W 122°23'0 0.0
2017-Feb-17 11:31N 47°40' W 122°23'0 0.0
2017-Feb-17 10:28N 47°40' W 122°23'0 0.0
2017-Feb-17 09:31N 47°40' W 122°23'0 0.0
2017-Feb-17 08:28N 47°40' W 122°23'0 0.0
2017-Feb-17 07:31N 47°40' W 122°23'0 0.0
2017-Feb-17 06:31N 47°40' W 122°23'0 0.0
2017-Feb-17 05:32N 47°40' W 122°23'0 0.0
2017-Feb-17 04:28N 47°40' W 122°23'0 0.0
2017-Feb-17 03:31N 47°40' W 122°23'0 0.0
2017-Feb-17 02:31N 47°40' W 122°23'0 0.0
2017-Feb-17 01:31N 47°40' W 122°23'0 0.0
2017-Feb-17 00:31N 47°40' W 122°23'0 0.0
2017-Feb-16 23:31N 47°40' W 122°23'0 0.0
2017-Feb-16 22:32N 47°40' W 122°23'0 0.0
2017-Feb-16 21:32N 47°40' W 122°23'0 0.0
2017-Feb-16 20:32N 47°40' W 122°23'0 0.0
2017-Feb-16 19:31N 47°40' W 122°23'0 0.0
2017-Feb-16 18:31N 47°40' W 122°23'0 0.0
2017-Feb-16 17:28N 47°40' W 122°23'0 0.0
2017-Feb-16 16:31N 47°40' W 122°23'0 0.0
2017-Feb-16 15:31N 47°40' W 122°23'0 0.0
2017-Feb-16 14:31N 47°40' W 122°23'0 0.0
2017-Feb-16 13:32N 47°40' W 122°23'0 0.0
2017-Feb-16 12:31N 47°40' W 122°23'0 0.0
2017-Feb-16 11:31N 47°40' W 122°23'0 0.0
2017-Feb-16 10:31N 47°40' W 122°23'0 0.0
2017-Feb-16 09:32N 47°40' W 122°23'0 0.0
2017-Feb-16 08:31N 47°40' W 122°23'0 0.0
2017-Feb-16 07:31N 47°40' W 122°23'0 0.0
2017-Feb-16 06:31N 47°40' W 122°23'0 0.0
2017-Feb-16 05:31N 47°40' W 122°23'0 0.0
2017-Feb-16 04:31N 47°40' W 122°23'0 0.0
2017-Feb-16 03:32N 47°40' W 122°23'0 0.0
2017-Feb-16 02:32N 47°40' W 122°23'0 0.0
2017-Feb-16 01:32N 47°40' W 122°23'0 0.0
2017-Feb-16 00:31N 47°40' W 122°23'0 0.0
2017-Feb-15 23:32N 47°40' W 122°23'0 0.0
2017-Feb-15 22:31N 47°40' W 122°23'0 0.0
2017-Feb-15 21:32N 47°40' W 122°23'0 0.0
2017-Feb-15 20:28N 47°40' W 122°23'0 0.0
2017-Feb-15 19:32N 47°40' W 122°23'0 0.0
2017-Feb-15 18:28N 47°40' W 122°23'0 0.0
2017-Feb-15 17:31N 47°40' W 122°23'0 0.0
2017-Feb-15 16:31N 47°40' W 122°23'0 0.0
2017-Feb-15 15:31N 47°40' W 122°23'0 0.0
2017-Feb-15 14:31N 47°40' W 122°23'0 0.0
2017-Feb-15 13:31N 47°40' W 122°23'0 0.0
2017-Feb-15 12:31N 47°40' W 122°23'0 0.0
2017-Feb-15 11:31N 47°40' W 122°23'0 0.0
2017-Feb-15 10:31N 47°40' W 122°23'0 0.0
2017-Feb-15 09:30N 47°40' W 122°23'0 0.0
2017-Feb-15 08:31N 47°40' W 122°23'0 0.0
2017-Feb-15 07:29N 47°40' W 122°23'0 0.0
2017-Feb-15 06:31N 47°40' W 122°23'0 0.0
2017-Feb-15 05:31N 47°40' W 122°23'0 0.0
2017-Feb-15 04:31N 47°40' W 122°23'0 0.0
2017-Feb-15 03:31N 47°40' W 122°23'0 0.0
2017-Feb-15 02:32N 47°40' W 122°23'0 0.0
2017-Feb-15 01:31N 47°40' W 122°23'0 0.0
2017-Feb-15 00:31N 47°40' W 122°23'0 0.0
2017-Feb-14 23:31N 47°40' W 122°23'0 0.0
2017-Feb-14 22:28N 47°40' W 122°23'0 0.0
2017-Feb-14 21:31N 47°40' W 122°23'0 0.0
2017-Feb-14 20:31N 47°40' W 122°23'0 0.0
2017-Feb-14 19:31N 47°40' W 122°23'0 0.0
2017-Feb-14 18:31N 47°40' W 122°23'0 0.0
2017-Feb-14 17:32N 47°40' W 122°23'0 0.0
2017-Feb-14 16:31N 47°40' W 122°23'0 0.0
2017-Feb-14 15:32N 47°40' W 122°23'0 0.0
2017-Feb-14 14:31N 47°40' W 122°23'0 0.0
2017-Feb-14 13:32N 47°40' W 122°23'0 0.0
2017-Feb-14 12:32N 47°40' W 122°23'0 0.0
2017-Feb-14 11:29N 47°40' W 122°23'0 0.0
2017-Feb-14 10:31N 47°40' W 122°23'0 0.0
2017-Feb-14 09:32N 47°40' W 122°23'0 0.0
2017-Feb-14 08:32N 47°40' W 122°23'0 0.0
2017-Feb-14 07:32N 47°40' W 122°23'0 0.0
2017-Feb-14 06:31N 47°40' W 122°23'0 0.0
2017-Feb-14 05:32N 47°40' W 122°23'0 0.0
2017-Feb-14 04:32N 47°40' W 122°23'0 0.0
2017-Feb-14 03:32N 47°40' W 122°23'0 0.0
2017-Feb-14 02:31N 47°40' W 122°23'0 0.0
2017-Feb-14 01:31N 47°40' W 122°23'0 0.0
2017-Feb-14 00:31N 47°40' W 122°23'0 0.0
2017-Feb-13 23:32N 47°40' W 122°23'0 0.0
2017-Feb-13 22:32N 47°40' W 122°23'0 0.0
2017-Feb-13 21:31N 47°40' W 122°23'0 0.0
2017-Feb-13 20:32N 47°40' W 122°23'0 0.0
2017-Feb-13 19:25N 47°40' W 122°23'0 0.0
2017-Feb-13 18:31N 47°40' W 122°23'0 0.0
2017-Feb-13 17:31N 47°40' W 122°23'0 0.0
2017-Feb-13 16:28N 47°40' W 122°23'0 0.0
2017-Feb-13 15:31N 47°40' W 122°23'0 0.0
2017-Feb-13 14:31N 47°40' W 122°23'0 0.0
2017-Feb-13 13:32N 47°40' W 122°23'0 0.0
2017-Feb-13 12:31N 47°40' W 122°23'0 0.0
2017-Feb-13 11:32N 47°40' W 122°23'0 0.0
2017-Feb-13 10:31N 47°40' W 122°23'0 0.0
2017-Feb-13 09:32N 47°40' W 122°23'0 0.0
2017-Feb-13 08:32N 47°40' W 122°23'0 0.0
2017-Feb-13 07:32N 47°40' W 122°23'0 0.0
2017-Feb-13 06:28N 47°40' W 122°23'0 0.0
2017-Feb-13 05:31N 47°40' W 122°23'0 0.0
2017-Feb-13 04:32N 47°40' W 122°23'0 0.0
2017-Feb-13 03:32N 47°40' W 122°23'0 0.0
2017-Feb-13 02:31N 47°40' W 122°23'0 0.0
2017-Feb-13 01:31N 47°40' W 122°23'0 0.0
2017-Feb-13 00:32N 47°40' W 122°23'0 0.0
2017-Feb-12 23:31N 47°40' W 122°23'0 0.0
2017-Feb-12 22:29N 47°40' W 122°23'0 0.0
2017-Feb-12 21:31N 47°40' W 122°23'0 0.0
2017-Feb-12 20:31N 47°40' W 122°23'0 0.0
2017-Feb-12 19:31N 47°40' W 122°23'0 0.0
2017-Feb-12 18:28N 47°40' W 122°23'0 0.0
2017-Feb-12 17:31N 47°40' W 122°23'0 0.0
2017-Feb-12 16:31N 47°40' W 122°23'0 0.0
2017-Feb-12 15:31N 47°40' W 122°23'0 0.0
2017-Feb-12 14:31N 47°40' W 122°23'0 0.0
2017-Feb-12 13:31N 47°40' W 122°23'0 0.0
2017-Feb-12 12:28N 47°40' W 122°23'0 0.0
2017-Feb-12 11:31N 47°40' W 122°23'0 0.0
2017-Feb-12 10:28N 47°40' W 122°23'0 0.0
2017-Feb-12 09:31N 47°40' W 122°23'0 0.0
2017-Feb-12 08:31N 47°40' W 122°23'0 0.0
2017-Feb-12 07:32N 47°40' W 122°23'0 0.0
2017-Feb-12 06:32N 47°40' W 122°23'0 0.0
2017-Feb-12 05:28N 47°40' W 122°23'0 0.0
2017-Feb-12 04:28N 47°40' W 122°23'0 0.0
2017-Feb-12 03:31N 47°40' W 122°23'0 0.0
2017-Feb-12 02:31N 47°40' W 122°23'0 0.0
2017-Feb-12 01:29N 47°40' W 122°23'0 0.0
2017-Feb-12 00:31N 47°40' W 122°23'0 0.0
2017-Feb-11 23:31N 47°40' W 122°23'0 0.0
2017-Feb-11 22:32N 47°40' W 122°23'0 0.0
2017-Feb-11 21:31N 47°40' W 122°23'0 0.0
2017-Feb-11 20:31N 47°40' W 122°23'0 0.0
2017-Feb-11 19:31N 47°40' W 122°23'0 0.0
2017-Feb-11 18:31N 47°40' W 122°23'0 0.0
2017-Feb-11 17:32N 47°40' W 122°23'0 0.0
2017-Feb-11 16:31N 47°40' W 122°23'0 0.0
2017-Feb-11 15:32N 47°40' W 122°23'0 0.0
2017-Feb-11 14:31N 47°40' W 122°23'0 0.0
2017-Feb-11 13:31N 47°40' W 122°23'0 0.0
2017-Feb-11 12:32N 47°40' W 122°23'0 0.0
2017-Feb-11 11:28N 47°40' W 122°23'0 0.0
2017-Feb-11 10:31N 47°40' W 122°23'0 0.0
2017-Feb-11 09:31N 47°40' W 122°23'0 0.0
2017-Feb-11 08:31N 47°40' W 122°23'0 0.0
2017-Feb-11 07:31N 47°40' W 122°23'0 0.0
2017-Feb-11 06:31N 47°40' W 122°23'0 0.0
2017-Feb-11 05:31N 47°40' W 122°23'0 0.0
2017-Feb-11 04:32N 47°40' W 122°23'0 0.0
2017-Feb-11 03:31N 47°40' W 122°23'0 0.0
2017-Feb-11 02:32N 47°40' W 122°23'0 0.0
2017-Feb-11 01:32N 47°40' W 122°23'0 0.0
2017-Feb-11 00:31N 47°40' W 122°23'0 0.0
2017-Feb-10 23:31N 47°40' W 122°23'0 0.0
2017-Feb-10 22:31N 47°40' W 122°23'0 0.0
2017-Feb-10 21:28N 47°40' W 122°23'0 0.0
2017-Feb-10 20:31N 47°40' W 122°23'0 0.0
2017-Feb-10 19:28N 47°40' W 122°23'0 0.0
2017-Feb-10 18:31N 47°40' W 122°23'0 0.0
2017-Feb-10 17:31N 47°40' W 122°23'0 0.0
2017-Feb-10 16:31N 47°40' W 122°23'0 0.0
2017-Feb-10 15:31N 47°40' W 122°23'0 0.0
2017-Feb-10 14:31N 47°40' W 122°23'  

Dump ship's entire track history